sensor_id;sensor_type;location;lat;lon;timestamp;temperature;humidity
42803;DHT22;28447;48.682;9.022;2023-03-23T05:01:46;12.60;97.60
42803;DHT22;28447;48.682;9.022;2023-03-23T05:04:12;12.60;97.70
42803;DHT22;28447;48.682;9.022;2023-03-23T05:06:42;12.70;97.80
42803;DHT22;28447;48.682;9.022;2023-03-23T05:09:09;12.70;97.70
42803;DHT22;28447;48.682;9.022;2023-03-23T05:11:35;12.60;97.70
42803;DHT22;28447;48.682;9.022;2023-03-23T05:14:03;12.70;97.90
42803;DHT22;28447;48.682;9.022;2023-03-23T05:16:29;12.70;97.70
42803;DHT22;28447;48.682;9.022;2023-03-23T05:18:55;12.60;97.70
42803;DHT22;28447;48.682;9.022;2023-03-23T05:21:23;12.50;97.80
42803;DHT22;28447;48.682;9.022;2023-03-23T05:23:48;12.50;97.80
42803;DHT22;28447;48.682;9.022;2023-03-23T05:26:21;12.60;97.70
42803;DHT22;28447;48.682;9.022;2023-03-23T05:28:47;12.60;97.70
42803;DHT22;28447;48.682;9.022;2023-03-23T05:31:13;12.70;97.70
42803;DHT22;28447;48.682;9.022;2023-03-23T05:33:39;12.70;97.50
42803;DHT22;28447;48.682;9.022;2023-03-23T05:36:05;12.70;97.60
42803;DHT22;28447;48.682;9.022;2023-03-23T05:38:32;12.80;97.40
42803;DHT22;28447;48.682;9.022;2023-03-23T05:40:59;12.80;97.50
42803;DHT22;28447;48.682;9.022;2023-03-23T05:43:26;12.90;97.30
42803;DHT22;28447;48.682;9.022;2023-03-23T05:45:52;12.90;97.20
42803;DHT22;28447;48.682;9.022;2023-03-23T05:48:18;12.90;97.20
42803;DHT22;28447;48.682;9.022;2023-03-23T05:50:43;12.90;97.20
42803;DHT22;28447;48.682;9.022;2023-03-23T05:53:09;13.00;97.20
42803;DHT22;28447;48.682;9.022;2023-03-23T05:55:35;13.00;97.20
42803;DHT22;28447;48.682;9.022;2023-03-23T05:58:01;13.00;97.10
42803;DHT22;28447;48.682;9.022;2023-03-23T06:00:27;13.10;96.80
42803;DHT22;28447;48.682;9.022;2023-03-23T06:02:56;13.10;97.00
42803;DHT22;28447;48.682;9.022;2023-03-23T06:05:22;13.10;97.10
42803;DHT22;28447;48.682;9.022;2023-03-23T06:07:49;13.20;96.90
42803;DHT22;28447;48.682;9.022;2023-03-23T06:10:15;13.20;96.80
42803;DHT22;28447;48.682;9.022;2023-03-23T06:12:41;13.20;97.10
42803;DHT22;28447;48.682;9.022;2023-03-23T06:15:09;13.20;96.80
42803;DHT22;28447;48.682;9.022;2023-03-23T06:17:35;13.20;96.70
42803;DHT22;28447;48.682;9.022;2023-03-23T06:20:02;13.30;96.70
42803;DHT22;28447;48.682;9.022;2023-03-23T06:22:30;13.30;96.60
42803;DHT22;28447;48.682;9.022;2023-03-23T06:24:55;13.40;96.60
42803;DHT22;28447;48.682;9.022;2023-03-23T06:27:23;13.40;96.80
42803;DHT22;28447;48.682;9.022;2023-03-23T06:29:49;13.30;96.70
42803;DHT22;28447;48.682;9.022;2023-03-23T06:32:14;13.30;96.70
42803;DHT22;28447;48.682;9.022;2023-03-23T06:34:40;13.40;96.60
42803;DHT22;28447;48.682;9.022;2023-03-23T06:37:09;13.40;96.50
42803;DHT22;28447;48.682;9.022;2023-03-23T06:39:34;13.50;96.50
42803;DHT22;28447;48.682;9.022;2023-03-23T06:42:02;13.50;96.40
42803;DHT22;28447;48.682;9.022;2023-03-23T06:44:28;13.50;96.40
42803;DHT22;28447;48.682;9.022;2023-03-23T06:46:53;13.60;96.50
42803;DHT22;28447;48.682;9.022;2023-03-23T06:49:19;13.50;96.40
42803;DHT22;28447;48.682;9.022;2023-03-23T06:51:45;13.60;96.40
42803;DHT22;28447;48.682;9.022;2023-03-23T06:54:11;13.60;96.30
42803;DHT22;28447;48.682;9.022;2023-03-23T06:56:36;13.70;96.30
42803;DHT22;28447;48.682;9.022;2023-03-23T06:59:02;13.60;96.30
42803;DHT22;28447;48.682;9.022;2023-03-23T07:01:28;13.60;96.40
42803;DHT22;28447;48.682;9.022;2023-03-23T07:03:55;13.70;96.40
42803;DHT22;28447;48.682;9.022;2023-03-23T07:06:24;13.70;96.40
42803;DHT22;28447;48.682;9.022;2023-03-23T07:08:50;13.70;96.50
42803;DHT22;28447;48.682;9.022;2023-03-23T07:11:16;13.70;96.30
42803;DHT22;28447;48.682;9.022;2023-03-23T07:13:41;13.70;96.30
42803;DHT22;28447;48.682;9.022;2023-03-23T07:16:07;13.70;96.50
42803;DHT22;28447;48.682;9.022;2023-03-23T07:18:33;13.60;96.50
42803;DHT22;28447;48.682;9.022;2023-03-23T07:20:59;13.70;96.60
42803;DHT22;28447;48.682;9.022;2023-03-23T07:23:25;13.60;96.70
42803;DHT22;28447;48.682;9.022;2023-03-23T07:25:51;13.60;96.80
42803;DHT22;28447;48.682;9.022;2023-03-23T07:28:17;13.60;96.80
42803;DHT22;28447;48.682;9.022;2023-03-23T07:30:44;13.60;97.00
42803;DHT22;28447;48.682;9.022;2023-03-23T07:33:10;13.50;97.00
42803;DHT22;28447;48.682;9.022;2023-03-23T07:35:37;13.60;97.10
42803;DHT22;28447;48.682;9.022;2023-03-23T07:38:04;13.60;97.20
42803;DHT22;28447;48.682;9.022;2023-03-23T07:40:30;13.60;97.10
42803;DHT22;28447;48.682;9.022;2023-03-23T07:42:59;13.60;97.10
42803;DHT22;28447;48.682;9.022;2023-03-23T07:45:24;13.70;97.40
42803;DHT22;28447;48.682;9.022;2023-03-23T07:47:50;13.70;97.30
42803;DHT22;28447;48.682;9.022;2023-03-23T07:50:18;13.80;97.30
42803;DHT22;28447;48.682;9.022;2023-03-23T07:52:46;13.80;97.40
42803;DHT22;28447;48.682;9.022;2023-03-23T07:55:12;13.80;97.50
42803;DHT22;28447;48.682;9.022;2023-03-23T07:57:43;14.00;97.60
42803;DHT22;28447;48.682;9.022;2023-03-23T08:00:09;14.00;97.40
42803;DHT22;28447;48.682;9.022;2023-03-23T08:02:40;14.10;97.80
42803;DHT22;28447;48.682;9.022;2023-03-23T08:05:07;14.00;98.00
42803;DHT22;28447;48.682;9.022;2023-03-23T08:07:34;14.10;97.90
42803;DHT22;28447;48.682;9.022;2023-03-23T08:10:00;14.10;97.90
42803;DHT22;28447;48.682;9.022;2023-03-23T08:12:26;14.10;98.10
42803;DHT22;28447;48.682;9.022;2023-03-23T08:14:52;14.00;98.20
42803;DHT22;28447;48.682;9.022;2023-03-23T08:17:19;14.10;98.30
42803;DHT22;28447;48.682;9.022;2023-03-23T08:19:45;14.10;98.70
42803;DHT22;28447;48.682;9.022;2023-03-23T08:22:11;14.20;98.50
42803;DHT22;28447;48.682;9.022;2023-03-23T08:24:37;14.20;98.50
42803;DHT22;28447;48.682;9.022;2023-03-23T08:27:03;14.40;98.70
42803;DHT22;28447;48.682;9.022;2023-03-23T08:29:29;14.50;98.60
42803;DHT22;28447;48.682;9.022;2023-03-23T08:31:56;14.50;98.80
42803;DHT22;28447;48.682;9.022;2023-03-23T08:34:22;14.50;98.50
42803;DHT22;28447;48.682;9.022;2023-03-23T08:36:48;14.40;98.90
42803;DHT22;28447;48.682;9.022;2023-03-23T08:39:14;14.30;99.30
42803;DHT22;28447;48.682;9.022;2023-03-23T08:41:40;14.30;99.40
42803;DHT22;28447;48.682;9.022;2023-03-23T08:44:06;14.20;99.80
42803;DHT22;28447;48.682;9.022;2023-03-23T08:46:33;14.20;99.80
42803;DHT22;28447;48.682;9.022;2023-03-23T08:48:59;14.30;99.60
42803;DHT22;28447;48.682;9.022;2023-03-23T08:51:25;14.20;99.80
42803;DHT22;28447;48.682;9.022;2023-03-23T08:53:51;14.20;99.90
42803;DHT22;28447;48.682;9.022;2023-03-23T08:56:18;14.10;99.90
42803;DHT22;28447;48.682;9.022;2023-03-23T08:58:43;14.30;99.90
42803;DHT22;28447;48.682;9.022;2023-03-23T09:01:09;14.40;99.90
42803;DHT22;28447;48.682;9.022;2023-03-23T09:03:37;14.40;99.90
42803;DHT22;28447;48.682;9.022;2023-03-23T09:06:04;14.40;99.90
42803;DHT22;28447;48.682;9.022;2023-03-23T09:08:31;14.50;99.90
42803;DHT22;28447;48.682;9.022;2023-03-23T09:11:01;14.60;99.90
42803;DHT22;28447;48.682;9.022;2023-03-23T09:13:28;14.50;99.90
42803;DHT22;28447;48.682;9.022;2023-03-23T09:15:55;14.60;99.90
42803;DHT22;28447;48.682;9.022;2023-03-23T09:18:21;15.00;99.70
42803;DHT22;28447;48.682;9.022;2023-03-23T09:20:49;15.00;99.80
42803;DHT22;28447;48.682;9.022;2023-03-23T09:23:15;14.60;99.60
42803;DHT22;28447;48.682;9.022;2023-03-23T09:25:41;14.60;99.90
42803;DHT22;28447;48.682;9.022;2023-03-23T09:28:07;14.80;99.60
42803;DHT22;28447;48.682;9.022;2023-03-23T09:30:34;14.90;99.50
42803;DHT22;28447;48.682;9.022;2023-03-23T09:33:03;14.70;99.70
42803;DHT22;28447;48.682;9.022;2023-03-23T09:35:29;14.70;99.60
42803;DHT22;28447;48.682;9.022;2023-03-23T09:37:56;14.50;99.90
42803;DHT22;28447;48.682;9.022;2023-03-23T09:40:45;14.50;99.90
42803;DHT22;28447;48.682;9.022;2023-03-23T09:43:22;14.50;99.90
42803;DHT22;28447;48.682;9.022;2023-03-23T09:46:43;14.70;99.90
42803;DHT22;28447;48.682;9.022;2023-03-23T09:48:56;14.40;99.90
42803;DHT22;28447;48.682;9.022;2023-03-23T09:51:42;14.60;99.90
42803;DHT22;28447;48.682;9.022;2023-03-23T09:56:45;14.60;99.90
42803;DHT22;28447;48.682;9.022;2023-03-23T09:59:17;14.70;99.90
42803;DHT22;28447;48.682;9.022;2023-03-23T10:01:50;14.60;99.90
42803;DHT22;28447;48.682;9.022;2023-03-23T10:04:29;14.70;99.90
42803;DHT22;28447;48.682;9.022;2023-03-23T10:07:10;14.70;99.90
42803;DHT22;28447;48.682;9.022;2023-03-23T10:09:37;14.90;99.90
42803;DHT22;28447;48.682;9.022;2023-03-23T10:15:00;15.50;99.50
42803;DHT22;28447;48.682;9.022;2023-03-23T10:20:51;15.20;99.90
42803;DHT22;28447;48.682;9.022;2023-03-23T10:28:46;14.80;99.90
42803;DHT22;28447;48.682;9.022;2023-03-23T10:31:17;15.00;99.90
42803;DHT22;28447;48.682;9.022;2023-03-23T10:33:57;15.00;99.90
42803;DHT22;28447;48.682;9.022;2023-03-23T10:36:27;15.00;99.90
42803;DHT22;28447;48.682;9.022;2023-03-23T10:41:37;15.60;99.90
42803;DHT22;28447;48.682;9.022;2023-03-23T10:44:15;15.90;99.90
42803;DHT22;28447;48.682;9.022;2023-03-23T10:49:11;16.10;99.90
42803;DHT22;28447;48.682;9.022;2023-03-23T10:51:42;15.80;99.30
42803;DHT22;28447;48.682;9.022;2023-03-23T10:54:10;16.50;99.00
42803;DHT22;28447;48.682;9.022;2023-03-23T10:56:40;16.90;98.40
42803;DHT22;28447;48.682;9.022;2023-03-23T10:59:27;16.60;98.70
42803;DHT22;28447;48.682;9.022;2023-03-23T11:01:56;16.00;98.90
42803;DHT22;28447;48.682;9.022;2023-03-23T11:04:23;16.20;99.00
42803;DHT22;28447;48.682;9.022;2023-03-23T11:06:52;15.90;99.20
42803;DHT22;28447;48.682;9.022;2023-03-23T11:09:21;15.60;99.40
42803;DHT22;28447;48.682;9.022;2023-03-23T11:11:54;15.10;99.90
42803;DHT22;28447;48.682;9.022;2023-03-23T11:14:33;15.60;99.80
42803;DHT22;28447;48.682;9.022;2023-03-23T11:17:04;15.60;99.60
42803;DHT22;28447;48.682;9.022;2023-03-23T11:19:34;15.80;99.40
42803;DHT22;28447;48.682;9.022;2023-03-23T11:24:40;16.20;99.40
42803;DHT22;28447;48.682;9.022;2023-03-23T11:27:07;16.20;99.10
42803;DHT22;28447;48.682;9.022;2023-03-23T11:29:35;15.70;99.90
42803;DHT22;28447;48.682;9.022;2023-03-23T11:34:35;15.90;99.30
42803;DHT22;28447;48.682;9.022;2023-03-23T11:37:13;16.40;98.90
42803;DHT22;28447;48.682;9.022;2023-03-23T11:39:49;16.50;98.20
42803;DHT22;28447;48.682;9.022;2023-03-23T11:42:23;16.00;98.50
42803;DHT22;28447;48.682;9.022;2023-03-23T11:44:53;16.30;97.90
42803;DHT22;28447;48.682;9.022;2023-03-23T11:47:59;16.60;97.70
42803;DHT22;28447;48.682;9.022;2023-03-23T11:53:27;16.50;97.80
42803;DHT22;28447;48.682;9.022;2023-03-23T11:58:32;16.00;97.60
42803;DHT22;28447;48.682;9.022;2023-03-23T12:04:33;16.30;97.40
42803;DHT22;28447;48.682;9.022;2023-03-23T12:37:42;16.20;97.70
42803;DHT22;28447;48.682;9.022;2023-03-23T12:46:05;16.70;96.30
42803;DHT22;28447;48.682;9.022;2023-03-23T12:57:12;17.10;97.10
42803;DHT22;28447;48.682;9.022;2023-03-23T13:02:34;17.40;95.90
42803;DHT22;28447;48.682;9.022;2023-03-23T13:05:11;17.30;96.10
42803;DHT22;28447;48.682;9.022;2023-03-23T13:07:46;17.10;96.00
42803;DHT22;28447;48.682;9.022;2023-03-23T13:10:21;16.60;96.60
42803;DHT22;28447;48.682;9.022;2023-03-23T13:12:49;17.10;96.00
42803;DHT22;28447;48.682;9.022;2023-03-23T13:23:15;17.00;95.60
42803;DHT22;28447;48.682;9.022;2023-03-23T13:26:02;17.40;95.40
42803;DHT22;28447;48.682;9.022;2023-03-23T13:28:47;17.70;95.30
42803;DHT22;28447;48.682;9.022;2023-03-23T13:31:16;17.50;94.80
42803;DHT22;28447;48.682;9.022;2023-03-23T13:33:51;17.60;95.00
42803;DHT22;28447;48.682;9.022;2023-03-23T13:36:26;17.30;95.50
42803;DHT22;28447;48.682;9.022;2023-03-23T13:38:52;17.30;95.30
42803;DHT22;28447;48.682;9.022;2023-03-23T13:41:19;17.30;95.40
42803;DHT22;28447;48.682;9.022;2023-03-23T13:43:47;17.60;95.30
42803;DHT22;28447;48.682;9.022;2023-03-23T13:48:49;17.80;95.00
42803;DHT22;28447;48.682;9.022;2023-03-23T13:59:15;17.60;94.10
42803;DHT22;28447;48.682;9.022;2023-03-23T14:01:42;17.40;94.90
42803;DHT22;28447;48.682;9.022;2023-03-23T14:04:16;17.30;95.00
42803;DHT22;28447;48.682;9.022;2023-03-23T14:06:44;17.10;95.00
42803;DHT22;28447;48.682;9.022;2023-03-23T14:09:22;17.00;95.00
42803;DHT22;28447;48.682;9.022;2023-03-23T14:12:19;17.30;94.80
42803;DHT22;28447;48.682;9.022;2023-03-23T14:14:51;16.80;94.80
42803;DHT22;28447;48.682;9.022;2023-03-23T14:17:26;16.90;95.20
42803;DHT22;28447;48.682;9.022;2023-03-23T14:19:54;16.80;95.00
42803;DHT22;28447;48.682;9.022;2023-03-23T14:22:32;16.80;95.30
42803;DHT22;28447;48.682;9.022;2023-03-23T14:25:18;17.00;95.20
42803;DHT22;28447;48.682;9.022;2023-03-23T14:27:46;17.00;95.20
42803;DHT22;28447;48.682;9.022;2023-03-23T14:30:19;16.70;94.90
42803;DHT22;28447;48.682;9.022;2023-03-23T14:32:45;16.70;94.90
42803;DHT22;28447;48.682;9.022;2023-03-23T14:35:23;16.70;95.00
42803;DHT22;28447;48.682;9.022;2023-03-23T14:37:50;16.70;94.70
42803;DHT22;28447;48.682;9.022;2023-03-23T14:40:17;16.40;95.00
42803;DHT22;28447;48.682;9.022;2023-03-23T14:42:44;16.70;94.90
42803;DHT22;28447;48.682;9.022;2023-03-23T14:45:15;16.50;94.80
42803;DHT22;28447;48.682;9.022;2023-03-23T14:48:05;16.70;94.90
42803;DHT22;28447;48.682;9.022;2023-03-23T14:50:38;16.80;94.50
42803;DHT22;28447;48.682;9.022;2023-03-23T14:53:24;16.80;94.10
42803;DHT22;28447;48.682;9.022;2023-03-23T14:55:52;16.70;94.30
42803;DHT22;28447;48.682;9.022;2023-03-23T14:58:20;16.70;94.20
42803;DHT22;28447;48.682;9.022;2023-03-23T15:00:55;16.70;93.80
42803;DHT22;28447;48.682;9.022;2023-03-23T15:03:24;16.80;93.90
42803;DHT22;28447;48.682;9.022;2023-03-23T15:05:56;16.80;93.70
42803;DHT22;28447;48.682;9.022;2023-03-23T15:08:33;16.80;93.80
42803;DHT22;28447;48.682;9.022;2023-03-23T15:13:28;16.70;93.60
42803;DHT22;28447;48.682;9.022;2023-03-23T15:16:02;16.80;93.40
42803;DHT22;28447;48.682;9.022;2023-03-23T15:18:36;16.80;93.20
42803;DHT22;28447;48.682;9.022;2023-03-23T15:21:21;16.80;93.10
42803;DHT22;28447;48.682;9.022;2023-03-23T15:23:47;16.60;93.30
42803;DHT22;28447;48.682;9.022;2023-03-23T15:26:42;16.70;93.30
42803;DHT22;28447;48.682;9.022;2023-03-23T15:29:19;16.60;93.20
42803;DHT22;28447;48.682;9.022;2023-03-23T15:31:55;16.50;93.70
42803;DHT22;28447;48.682;9.022;2023-03-23T15:34:29;16.40;93.80
42803;DHT22;28447;48.682;9.022;2023-03-23T15:36:59;16.40;94.10
42803;DHT22;28447;48.682;9.022;2023-03-23T15:39:26;16.30;94.00
42803;DHT22;28447;48.682;9.022;2023-03-23T15:41:53;16.40;94.10
42803;DHT22;28447;48.682;9.022;2023-03-23T15:44:28;16.30;94.10
42803;DHT22;28447;48.682;9.022;2023-03-23T15:47:04;16.20;94.10
42803;DHT22;28447;48.682;9.022;2023-03-23T15:49:35;16.10;94.10
42803;DHT22;28447;48.682;9.022;2023-03-23T15:52:01;16.10;94.30
42803;DHT22;28447;48.682;9.022;2023-03-23T15:54:30;16.10;94.40
42803;DHT22;28447;48.682;9.022;2023-03-23T15:56:56;16.10;94.20
42803;DHT22;28447;48.682;9.022;2023-03-23T15:59:22;16.00;94.30
42803;DHT22;28447;48.682;9.022;2023-03-23T16:01:48;16.00;94.40
42803;DHT22;28447;48.682;9.022;2023-03-23T16:04:16;16.10;94.50
42803;DHT22;28447;48.682;9.022;2023-03-23T16:06:43;15.90;94.60
42803;DHT22;28447;48.682;9.022;2023-03-23T16:09:15;15.80;94.60
42803;DHT22;28447;48.682;9.022;2023-03-23T16:11:41;15.90;94.50
42803;DHT22;28447;48.682;9.022;2023-03-23T16:14:07;15.90;94.60
42803;DHT22;28447;48.682;9.022;2023-03-23T16:16:37;15.80;94.60
42803;DHT22;28447;48.682;9.022;2023-03-23T16:19:03;15.70;94.80
42803;DHT22;28447;48.682;9.022;2023-03-23T16:21:30;15.70;94.80
42803;DHT22;28447;48.682;9.022;2023-03-23T16:23:57;15.60;94.80
42803;DHT22;28447;48.682;9.022;2023-03-23T16:26:23;15.60;94.90
42803;DHT22;28447;48.682;9.022;2023-03-23T16:28:49;15.60;95.00
42803;DHT22;28447;48.682;9.022;2023-03-23T16:31:15;15.60;95.00
42803;DHT22;28447;48.682;9.022;2023-03-23T16:33:40;15.50;95.20
42803;DHT22;28447;48.682;9.022;2023-03-23T16:36:08;15.50;95.20
42803;DHT22;28447;48.682;9.022;2023-03-23T16:38:34;15.50;95.40
42803;DHT22;28447;48.682;9.022;2023-03-23T16:41:00;15.50;95.60
42803;DHT22;28447;48.682;9.022;2023-03-23T16:43:25;15.50;95.60
42803;DHT22;28447;48.682;9.022;2023-03-23T16:45:54;15.40;95.70
42803;DHT22;28447;48.682;9.022;2023-03-23T16:48:20;15.30;95.80
42803;DHT22;28447;48.682;9.022;2023-03-23T16:50:47;15.40;95.90
42803;DHT22;28447;48.682;9.022;2023-03-23T16:53:13;15.40;96.10
42803;DHT22;28447;48.682;9.022;2023-03-23T16:55:39;15.30;96.10
42803;DHT22;28447;48.682;9.022;2023-03-23T16:58:05;15.30;96.30
42803;DHT22;28447;48.682;9.022;2023-03-23T17:00:31;15.30;96.30
42803;DHT22;28447;48.682;9.022;2023-03-23T17:02:57;15.30;96.40
42803;DHT22;28447;48.682;9.022;2023-03-23T17:05:26;15.30;96.50
42803;DHT22;28447;48.682;9.022;2023-03-23T17:07:53;15.20;96.60
42803;DHT22;28447;48.682;9.022;2023-03-23T17:10:24;15.30;96.70
42803;DHT22;28447;48.682;9.022;2023-03-23T17:12:52;15.20;96.80
42803;DHT22;28447;48.682;9.022;2023-03-23T17:15:18;15.20;97.00
42803;DHT22;28447;48.682;9.022;2023-03-23T17:17:44;15.10;97.40
42803;DHT22;28447;48.682;9.022;2023-03-23T17:20:09;15.10;97.40
42803;DHT22;28447;48.682;9.022;2023-03-23T17:22:37;15.20;97.40
42803;DHT22;28447;48.682;9.022;2023-03-23T17:25:03;15.00;97.60
42803;DHT22;28447;48.682;9.022;2023-03-23T17:27:30;15.00;97.70
42803;DHT22;28447;48.682;9.022;2023-03-23T17:29:56;14.90;97.90
42803;DHT22;28447;48.682;9.022;2023-03-23T17:32:22;14.90;97.90
42803;DHT22;28447;48.682;9.022;2023-03-23T17:34:49;14.80;98.00
42803;DHT22;28447;48.682;9.022;2023-03-23T17:37:15;14.80;98.10
42803;DHT22;28447;48.682;9.022;2023-03-23T17:39:41;14.80;98.00
42803;DHT22;28447;48.682;9.022;2023-03-23T17:42:07;14.80;98.00
42803;DHT22;28447;48.682;9.022;2023-03-23T17:44:32;14.80;98.20
42803;DHT22;28447;48.682;9.022;2023-03-23T17:46:58;14.80;98.20
42803;DHT22;28447;48.682;9.022;2023-03-23T17:49:25;14.80;98.30
42803;DHT22;28447;48.682;9.022;2023-03-23T17:51:51;14.70;98.50
42803;DHT22;28447;48.682;9.022;2023-03-23T17:54:17;14.70;98.50
42803;DHT22;28447;48.682;9.022;2023-03-23T17:56:43;14.60;98.60
42803;DHT22;28447;48.682;9.022;2023-03-23T17:59:09;14.60;98.70
42803;DHT22;28447;48.682;9.022;2023-03-23T18:01:35;14.60;98.60
42803;DHT22;28447;48.682;9.022;2023-03-23T18:04:00;14.60;98.70
42803;DHT22;28447;48.682;9.022;2023-03-23T18:06:28;14.60;98.70
42803;DHT22;28447;48.682;9.022;2023-03-23T18:08:53;14.60;98.80
42803;DHT22;28447;48.682;9.022;2023-03-23T18:11:19;14.60;98.90
42803;DHT22;28447;48.682;9.022;2023-03-23T18:13:45;14.50;99.00
42803;DHT22;28447;48.682;9.022;2023-03-23T18:16:10;14.60;98.90
42803;DHT22;28447;48.682;9.022;2023-03-23T18:18:36;14.50;99.00
42803;DHT22;28447;48.682;9.022;2023-03-23T18:21:07;14.50;99.10
42803;DHT22;28447;48.682;9.022;2023-03-23T18:23:34;14.60;99.00
42803;DHT22;28447;48.682;9.022;2023-03-23T18:26:05;14.50;99.20
42803;DHT22;28447;48.682;9.022;2023-03-23T18:28:32;14.50;99.20
42803;DHT22;28447;48.682;9.022;2023-03-23T18:31:03;14.50;99.30
42803;DHT22;28447;48.682;9.022;2023-03-23T18:33:29;14.40;99.40
42803;DHT22;28447;48.682;9.022;2023-03-23T18:35:56;14.40;99.60
42803;DHT22;28447;48.682;9.022;2023-03-23T18:38:23;14.40;99.60
42803;DHT22;28447;48.682;9.022;2023-03-23T18:40:49;14.40;99.70
42803;DHT22;28447;48.682;9.022;2023-03-23T18:43:15;14.30;99.90
42803;DHT22;28447;48.682;9.022;2023-03-23T18:45:40;14.30;99.90
42803;DHT22;28447;48.682;9.022;2023-03-23T18:48:06;14.30;99.90
42803;DHT22;28447;48.682;9.022;2023-03-23T18:50:34;14.20;99.90
42803;DHT22;28447;48.682;9.022;2023-03-23T18:52:59;14.20;99.90
42803;DHT22;28447;48.682;9.022;2023-03-23T18:55:25;14.20;99.90
42803;DHT22;28447;48.682;9.022;2023-03-23T18:57:51;14.10;99.90
42803;DHT22;28447;48.682;9.022;2023-03-23T19:00:17;14.10;99.90
42803;DHT22;28447;48.682;9.022;2023-03-23T19:02:43;14.20;99.90
42803;DHT22;28447;48.682;9.022;2023-03-23T19:05:09;14.20;99.90
42803;DHT22;28447;48.682;9.022;2023-03-23T19:07:35;14.20;99.90
42803;DHT22;28447;48.682;9.022;2023-03-23T19:10:03;14.20;99.90
42803;DHT22;28447;48.682;9.022;2023-03-23T19:12:29;14.20;99.90
42803;DHT22;28447;48.682;9.022;2023-03-23T19:14:56;14.20;99.90
42803;DHT22;28447;48.682;9.022;2023-03-23T19:17:21;14.20;99.90
42803;DHT22;28447;48.682;9.022;2023-03-23T19:19:49;14.20;99.90
42803;DHT22;28447;48.682;9.022;2023-03-23T19:22:15;14.20;99.90
42803;DHT22;28447;48.682;9.022;2023-03-23T19:24:40;14.30;99.90
42803;DHT22;28447;48.682;9.022;2023-03-23T19:27:06;14.30;99.90
42803;DHT22;28447;48.682;9.022;2023-03-23T19:29:32;14.30;99.90
42803;DHT22;28447;48.682;9.022;2023-03-23T19:31:58;14.30;99.90
42803;DHT22;28447;48.682;9.022;2023-03-23T19:34:25;14.30;99.90
42803;DHT22;28447;48.682;9.022;2023-03-23T19:36:53;14.20;99.90
42803;DHT22;28447;48.682;9.022;2023-03-23T19:39:18;14.10;99.90
42803;DHT22;28447;48.682;9.022;2023-03-23T19:41:44;14.10;99.90
42803;DHT22;28447;48.682;9.022;2023-03-23T19:44:10;14.10;99.90
42803;DHT22;28447;48.682;9.022;2023-03-23T19:46:36;14.00;99.90
42803;DHT22;28447;48.682;9.022;2023-03-23T19:49:02;14.00;99.90
42803;DHT22;28447;48.682;9.022;2023-03-23T19:51:28;14.00;99.90
42803;DHT22;28447;48.682;9.022;2023-03-23T19:53:55;14.00;99.90
42803;DHT22;28447;48.682;9.022;2023-03-23T19:56:21;14.00;99.90
42803;DHT22;28447;48.682;9.022;2023-03-23T19:58:48;13.90;99.90
42803;DHT22;28447;48.682;9.022;2023-03-23T20:01:14;13.90;99.90
42803;DHT22;28447;48.682;9.022;2023-03-23T20:03:40;13.80;99.90
42803;DHT22;28447;48.682;9.022;2023-03-23T20:06:09;13.80;99.90
42803;DHT22;28447;48.682;9.022;2023-03-23T20:08:39;13.90;99.90
42803;DHT22;28447;48.682;9.022;2023-03-23T20:11:10;13.80;99.90
42803;DHT22;28447;48.682;9.022;2023-03-23T20:13:37;13.80;99.90
42803;DHT22;28447;48.682;9.022;2023-03-23T20:16:03;13.70;99.90
42803;DHT22;28447;48.682;9.022;2023-03-23T20:18:29;13.60;99.90
42803;DHT22;28447;48.682;9.022;2023-03-23T20:21:09;13.60;99.90
42803;DHT22;28447;48.682;9.022;2023-03-23T20:23:36;13.60;99.90
42803;DHT22;28447;48.682;9.022;2023-03-23T20:26:15;13.60;99.90
42803;DHT22;28447;48.682;9.022;2023-03-23T20:28:41;13.60;99.90
42803;DHT22;28447;48.682;9.022;2023-03-23T20:33:33;13.50;99.90
42803;DHT22;28447;48.682;9.022;2023-03-23T20:36:00;13.60;99.90
42803;DHT22;28447;48.682;9.022;2023-03-23T20:38:26;13.50;99.90
42803;DHT22;28447;48.682;9.022;2023-03-23T20:40:53;13.50;99.90
42803;DHT22;28447;48.682;9.022;2023-03-23T20:43:22;13.50;99.90
42803;DHT22;28447;48.682;9.022;2023-03-23T20:45:56;13.40;99.90
42803;DHT22;28447;48.682;9.022;2023-03-23T20:48:31;13.40;99.90
42803;DHT22;28447;48.682;9.022;2023-03-23T20:51:00;13.40;99.90
42803;DHT22;28447;48.682;9.022;2023-03-23T20:53:29;13.30;99.90
42803;DHT22;28447;48.682;9.022;2023-03-23T20:55:56;13.30;99.90
42803;DHT22;28447;48.682;9.022;2023-03-23T20:58:24;13.30;99.90
42803;DHT22;28447;48.682;9.022;2023-03-23T21:00:52;13.30;99.90
42803;DHT22;28447;48.682;9.022;2023-03-23T21:03:33;13.30;99.90
42803;DHT22;28447;48.682;9.022;2023-03-23T21:06:00;13.30;99.90
42803;DHT22;28447;48.682;9.022;2023-03-23T21:08:28;13.30;99.90
42803;DHT22;28447;48.682;9.022;2023-03-23T21:10:55;13.30;99.90
42803;DHT22;28447;48.682;9.022;2023-03-23T21:13:21;13.30;99.90
42803;DHT22;28447;48.682;9.022;2023-03-23T21:15:47;13.30;99.90
42803;DHT22;28447;48.682;9.022;2023-03-23T21:18:14;13.30;99.90
42803;DHT22;28447;48.682;9.022;2023-03-23T21:20:40;13.30;99.90
42803;DHT22;28447;48.682;9.022;2023-03-23T21:23:06;13.30;99.90
42803;DHT22;28447;48.682;9.022;2023-03-23T21:25:33;13.20;99.90
42803;DHT22;28447;48.682;9.022;2023-03-23T21:28:00;13.20;99.90
42803;DHT22;28447;48.682;9.022;2023-03-23T21:30:26;13.20;99.90
42803;DHT22;28447;48.682;9.022;2023-03-23T21:32:52;13.20;99.90
42803;DHT22;28447;48.682;9.022;2023-03-23T21:35:18;13.30;99.90
42803;DHT22;28447;48.682;9.022;2023-03-23T21:37:44;13.30;99.90
42803;DHT22;28447;48.682;9.022;2023-03-23T21:40:14;13.20;99.90
42803;DHT22;28447;48.682;9.022;2023-03-23T21:42:41;13.20;99.90
42803;DHT22;28447;48.682;9.022;2023-03-23T21:45:09;13.20;99.90
42803;DHT22;28447;48.682;9.022;2023-03-23T21:47:36;13.20;99.90
42803;DHT22;28447;48.682;9.022;2023-03-23T21:50:03;13.20;99.90
42803;DHT22;28447;48.682;9.022;2023-03-23T21:52:30;13.20;99.90
42803;DHT22;28447;48.682;9.022;2023-03-23T21:54:56;13.20;99.90
42803;DHT22;28447;48.682;9.022;2023-03-23T21:57:24;13.20;99.90
42803;DHT22;28447;48.682;9.022;2023-03-23T21:59:50;13.20;99.90
42803;DHT22;28447;48.682;9.022;2023-03-23T22:02:15;13.20;99.90
42803;DHT22;28447;48.682;9.022;2023-03-23T22:04:41;13.20;99.90
42803;DHT22;28447;48.682;9.022;2023-03-23T22:07:07;13.20;99.90
42803;DHT22;28447;48.682;9.022;2023-03-23T22:09:33;13.10;99.90
42803;DHT22;28447;48.682;9.022;2023-03-23T22:12:01;13.10;99.90
42803;DHT22;28447;48.682;9.022;2023-03-23T22:14:27;13.10;99.90
42803;DHT22;28447;48.682;9.022;2023-03-23T22:16:53;13.10;99.90
42803;DHT22;28447;48.682;9.022;2023-03-23T22:19:20;13.20;99.90
42803;DHT22;28447;48.682;9.022;2023-03-23T22:21:46;13.10;99.90
42803;DHT22;28447;48.682;9.022;2023-03-23T22:24:12;13.10;99.90